TAF MPBO
METAR MPBO
MPBO 081900Z 27008KT 9999 SCT016 SCT080 28/23 Q1011=
MPBO 081800Z 27006KT 9999 SCT018 28/23 Q1012=
MPBO 081700Z 27009KT 9999 SCT015 SCT080 27/24 Q1014 RWY DAMP=
MPBO 081600Z 27010KT 9999 SCT015 BKN080 26/23 Q1014 RERA RWY WET=
MPBO 081500Z 28010KT 8000 -RA FEW008 SCT015 BKN080 24/23 Q1014 RWY WET =
WC MPBO
WS MPBO
WV MPBO